Overview Statistics Trail Chart Weather Telemetry Raw packets
 

This is the latest recevied weather packets stored in our database for station/object DL5DI-H. If no packets are shown the sender has not sent any weather packets the latest 10 day(s).

<< 44 45 46 47 48 49 50 >>
Time Temp. Humidity Pressure Rain* Wind** Luminosity Snow
1788013801 22.78° C 61% 1013.5 hPa 0 mm - - -
1788013201 23.33° C 60% 1013.6 hPa 0 mm - - -
1788012000 23.33° C 59% 1013.7 hPa 0 mm - - -
1788011400 23.89° C 57% 1013.9 hPa 0 mm - - -
1788010802 23.89° C 57% 1013.9 hPa 0 mm - - -
1788010214 23.89° C 55% 1013.9 hPa 0 mm - - -
1788009603 24.44° C 53% 1013.8 hPa 0 mm - - -
1788009002 24.44° C 53% 1013.8 hPa 0 mm - - -
1788008402 25° C 52% 1013.7 hPa 0 mm - - -
1788007802 25.56° C 51% 1013.6 hPa 0 mm - - -
1788007202 25.56° C 51% 1013.6 hPa 0 mm - - -
1788006602 25.56° C 50% 1013.6 hPa 0 mm - - -
1788006000 25° C 51% 1013.6 hPa 0 mm - - -
1788005401 25° C 51% 1013.6 hPa 0 mm - - -
1788004801 25° C 52% 1013.9 hPa 0 mm - - -
1788004201 24.44° C 52% 1013.9 hPa 0 mm - - -
1788003602 24.44° C 54% 1013.9 hPa 0 mm - - -
1788003002 23.89° C 56% 1014.1 hPa 0 mm - - -
1788002402 23.89° C 56% 1014.2 hPa 0 mm - - -
1788001801 23.89° C 57% 1014.3 hPa 0 mm - - -
1788001201 23.89° C 58% 1014.4 hPa 0 mm - - -
1788000601 23.89° C 58% 1014.4 hPa 0 mm - - -
1788000004 23.33° C 58% 1014.5 hPa 0 mm - - -
1787999400 23.33° C 60% 1014.5 hPa 0 mm - - -
1787998802 22.78° C 63% 1014.5 hPa 0 mm - - -

* Rain latest hour (hover to see other rain measurements)
** Current wind speed in m/s (hover to see current wind gust speed)